createdAt,value
2019-04-29T00:00:48.063Z,34.43
2019-04-29T00:03:19.404Z,27.53
2019-04-29T00:05:50.832Z,29.53
2019-04-29T00:08:22.200Z,35.33
2019-04-29T00:10:53.806Z,28.70
2019-04-29T00:13:25.089Z,27.70
2019-04-29T00:16:12.649Z,32.73
2019-04-29T00:18:56.562Z,34.50
2019-04-29T00:21:27.920Z,35.07
2019-04-29T00:24:04.160Z,38.10
2019-04-29T00:26:32.162Z,31.47
2019-04-29T00:29:03.492Z,26.93
2019-04-29T00:31:34.745Z,33.57
2019-04-29T00:34:06.001Z,37.47
2019-04-29T00:36:44.042Z,29.40
2019-04-29T00:39:42.926Z,34.50
2019-04-29T00:42:27.835Z,28.67
2019-04-29T00:44:59.219Z,31.30
2019-04-29T00:47:30.729Z,37.87
2019-04-29T00:50:01.942Z,32.63
2019-04-29T00:52:33.252Z,37.67
2019-04-29T00:55:09.836Z,31.30
2019-04-29T00:57:41.012Z,37.80
2019-04-29T01:00:17.548Z,37.30
2019-04-29T01:02:48.721Z,37.70
2019-04-29T01:05:19.933Z,35.97
2019-04-29T01:07:51.305Z,44.53
2019-04-29T01:10:22.533Z,39.37
2019-04-29T01:12:53.807Z,31.87
2019-04-29T01:15:25.155Z,35.67
2019-04-29T01:17:56.396Z,46.13
2019-04-29T01:20:27.621Z,41.40
2019-04-29T01:23:01.149Z,34.73
2019-04-29T01:25:32.264Z,38.90
2019-04-29T01:28:13.849Z,38.33
2019-04-29T01:31:17.862Z,38.70
2019-04-29T01:33:50.715Z,33.50
2019-04-29T01:36:40.656Z,33.53
2019-04-29T01:39:14.447Z,33.33
2019-04-29T01:41:51.723Z,33.70
2019-04-29T01:44:23.279Z,37.37
2019-04-29T01:46:54.583Z,37.23
2019-04-29T01:49:25.839Z,45.20
2019-04-29T01:51:57.044Z,37.13
2019-04-29T01:54:28.223Z,41.77
2019-04-29T01:56:59.497Z,39.87
2019-04-29T01:59:30.769Z,36.23
2019-04-29T02:02:02.005Z,40.80
2019-04-29T02:04:33.158Z,45.20
2019-04-29T02:07:04.561Z,39.10
2019-04-29T02:09:57.317Z,43.60
2019-04-29T02:12:28.564Z,32.67
2019-04-29T02:14:59.836Z,45.60
2019-04-29T02:17:31.067Z,50.87
2019-04-29T02:20:02.217Z,47.97
2019-04-29T02:22:50.494Z,36.50
2019-04-29T02:25:27.418Z,47.50
2019-04-29T02:27:58.602Z,49.33
2019-04-29T02:30:52.417Z,44.10
2019-04-29T02:33:23.532Z,43.63
2019-04-29T02:35:54.861Z,48.20
2019-04-29T02:38:36.035Z,46.23
2019-04-29T02:41:29.091Z,52.00
2019-04-29T02:44:01.907Z,47.70
2019-04-29T02:46:33.251Z,49.60
2019-04-29T02:49:04.638Z,50.13
2019-04-29T02:51:52.060Z,59.33
2019-04-29T02:54:24.540Z,39.70
2019-04-29T02:57:10.482Z,41.07
2019-04-29T02:59:46.053Z,43.80
2019-04-29T03:02:34.289Z,50.53
2019-04-29T03:05:15.356Z,45.93
2019-04-29T03:07:46.552Z,50.70
2019-04-29T03:10:20.173Z,47.87
2019-04-29T03:12:51.515Z,44.50
2019-04-29T03:15:32.798Z,46.23
2019-04-29T03:18:04.609Z,58.70
2019-04-29T03:20:45.137Z,62.10
2019-04-29T03:23:18.460Z,54.93
2019-04-29T03:25:49.677Z,50.30
2019-04-29T03:28:20.936Z,54.70
2019-04-29T03:30:52.133Z,45.63
2019-04-29T03:33:23.308Z,64.30
2019-04-29T03:35:54.543Z,53.27
2019-04-29T03:38:25.817Z,59.97
2019-04-29T03:40:57.018Z,55.87
2019-04-29T03:43:28.296Z,63.00
2019-04-29T03:45:59.518Z,59.93
2019-04-29T03:48:30.796Z,56.70
2019-04-29T03:51:02.097Z,65.50
2019-04-29T03:53:33.361Z,64.90
2019-04-29T03:56:04.722Z,70.20
2019-04-29T03:58:35.913Z,66.37
2019-04-29T04:01:15.167Z,63.90
2019-04-29T04:03:54.089Z,81.33
2019-04-29T04:06:40.070Z,73.47
2019-04-29T04:09:15.190Z,71.63
2019-04-29T04:11:46.464Z,62.13
2019-04-29T04:14:17.700Z,64.63
2019-04-29T04:17:06.731Z,74.67
2019-04-29T04:19:38.073Z,76.50
2019-04-29T04:22:09.440Z,78.47
2019-04-29T04:24:40.637Z,68.73
2019-04-29T04:27:11.851Z,76.67
2019-04-29T04:29:43.034Z,60.93
2019-04-29T04:32:14.284Z,78.63
2019-04-29T04:34:45.533Z,75.70
2019-04-29T04:37:16.833Z,73.83
2019-04-29T04:39:48.145Z,71.07
2019-04-29T04:42:19.271Z,76.30
2019-04-29T04:44:50.597Z,73.37
2019-04-29T04:47:22.230Z,79.50
2019-04-29T04:49:54.080Z,71.43
2019-04-29T04:52:25.220Z,73.13
2019-04-29T04:54:56.401Z,72.63
2019-04-29T04:57:27.666Z,82.20
2019-04-29T04:59:58.955Z,71.87
2019-04-29T05:02:30.190Z,73.90
2019-04-29T05:05:01.433Z,65.50
2019-04-29T05:07:32.656Z,67.60
2019-04-29T05:10:04.133Z,57.13
2019-04-29T05:12:38.467Z,62.73
2019-04-29T05:15:09.825Z,68.30
2019-04-29T05:17:41.044Z,67.80
2019-04-29T05:20:13.416Z,75.97
2019-04-29T05:22:59.725Z,69.37
2019-04-29T05:25:33.233Z,56.60
2019-04-29T05:28:05.614Z,60.63
2019-04-29T05:30:36.852Z,63.63
2019-04-29T05:33:08.091Z,56.33
2019-04-29T05:36:10.486Z,75.40
2019-04-29T05:38:54.401Z,67.90
2019-04-29T05:41:30.112Z,64.37
2019-04-29T05:44:07.155Z,56.80
2019-04-29T05:46:57.146Z,59.67
2019-04-29T05:49:37.518Z,46.93
2019-04-29T05:52:15.834Z,42.07
2019-04-29T05:54:46.920Z,31.63
2019-04-29T05:57:20.462Z,33.10
2019-04-29T05:59:51.108Z,31.60
2019-04-29T06:02:24.071Z,29.03
2019-04-29T06:04:55.205Z,25.80
2019-04-29T06:07:26.958Z,21.13
2019-04-29T06:09:58.406Z,19.60
2019-04-29T06:12:29.700Z,22.13
2019-04-29T06:15:01.014Z,16.60
2019-04-29T06:17:32.390Z,18.63
2019-04-29T06:20:03.715Z,19.47
2019-04-29T06:22:37.899Z,15.67
2019-04-29T06:25:08.171Z,17.97
2019-04-29T06:27:39.464Z,18.17
2019-04-29T06:30:10.918Z,17.37
2019-04-29T06:32:42.215Z,17.13
2019-04-29T06:35:15.316Z,17.83
2019-04-29T06:37:46.643Z,16.93
2019-04-29T06:40:18.235Z,18.27
2019-04-29T06:42:53.000Z,19.73
2019-04-29T06:45:22.316Z,22.30
2019-04-29T06:47:53.833Z,22.50
2019-04-29T06:50:25.610Z,23.60
2019-04-29T06:52:56.942Z,22.03
2019-04-29T06:55:28.236Z,22.43
2019-04-29T06:57:59.698Z,23.63
2019-04-29T07:00:30.948Z,25.17
2019-04-29T07:03:02.097Z,21.57
2019-04-29T07:05:33.392Z,27.53
2019-04-29T07:08:04.574Z,23.57
2019-04-29T07:10:35.881Z,19.97
2019-04-29T07:13:07.346Z,22.70
2019-04-29T07:15:38.625Z,21.77
2019-04-29T07:18:09.773Z,23.10
2019-04-29T07:20:41.052Z,23.70
2019-04-29T07:23:12.284Z,26.83
2019-04-29T07:25:43.537Z,24.57
2019-04-29T07:28:18.376Z,21.83
2019-04-29T07:31:00.965Z,22.13
2019-04-29T07:33:22.776Z,22.40
2019-04-29T07:35:53.493Z,22.60
2019-04-29T07:38:24.746Z,18.80
2019-04-29T07:40:55.967Z,19.03
2019-04-29T07:43:28.419Z,17.90
2019-04-29T07:46:08.706Z,19.47
2019-04-29T07:48:42.062Z,19.50
2019-04-29T07:51:12.840Z,23.03
2019-04-29T07:53:45.632Z,17.77
2019-04-29T07:56:16.984Z,19.97
2019-04-29T07:58:48.628Z,17.60
2019-04-29T08:01:24.599Z,19.13
2019-04-29T08:03:53.092Z,19.93
2019-04-29T08:06:24.664Z,16.53
2019-04-29T08:09:02.731Z,16.40
2019-04-29T08:11:29.059Z,16.40
2019-04-29T08:14:05.356Z,16.87
2019-04-29T08:16:36.570Z,17.23
2019-04-29T08:19:07.749Z,19.67
2019-04-29T08:21:39.020Z,24.93
2019-04-29T08:24:11.570Z,17.00
2019-04-29T08:26:47.320Z,16.03
2019-04-29T08:29:16.170Z,17.60
2019-04-29T08:31:47.472Z,16.43
2019-04-29T08:34:22.968Z,17.00
2019-04-29T08:36:51.567Z,20.07
2019-04-29T08:39:25.162Z,18.77
2019-04-29T08:41:58.808Z,18.07
2019-04-29T08:44:54.744Z,15.37
2019-04-29T08:47:31.464Z,18.07
2019-04-29T08:50:00.398Z,21.37
2019-04-29T08:52:31.649Z,19.73
2019-04-29T08:55:03.975Z,18.10
2019-04-29T08:57:36.495Z,20.60
2019-04-29T09:00:11.602Z,20.50
2019-04-29T09:02:47.447Z,15.17
2019-04-29T09:05:16.010Z,15.43
2019-04-29T09:07:47.182Z,14.97
2019-04-29T09:10:19.167Z,16.30
2019-04-29T09:12:50.403Z,15.50
2019-04-29T09:15:21.735Z,16.47
2019-04-29T09:17:52.937Z,18.97
2019-04-29T09:20:24.335Z,18.83
2019-04-29T09:23:00.155Z,18.47
2019-04-29T09:25:39.357Z,22.60
2019-04-29T09:28:17.659Z,15.70
2019-04-29T09:30:45.779Z,12.43
2019-04-29T09:33:17.112Z,18.33
2019-04-29T09:35:48.316Z,15.83
2019-04-29T09:38:19.604Z,16.83
2019-04-29T09:40:59.618Z,14.67
2019-04-29T09:43:50.680Z,15.17
2019-04-29T09:46:34.503Z,15.77
2019-04-29T09:49:04.143Z,18.30
2019-04-29T09:51:35.541Z,17.00
2019-04-29T09:54:09.602Z,14.70
2019-04-29T09:56:39.993Z,15.30
2019-04-29T09:59:31.613Z,14.57
2019-04-29T10:02:12.679Z,15.87
2019-04-29T10:05:17.699Z,13.43
2019-04-29T10:07:48.982Z,13.50
2019-04-29T10:10:20.435Z,11.47
2019-04-29T10:12:53.916Z,15.50
2019-04-29T10:15:34.373Z,14.20
2019-04-29T10:21:00.247Z,12.83
2019-04-29T10:23:31.461Z,17.57
2019-04-29T10:26:02.736Z,11.20
2019-04-29T10:28:35.673Z,12.17
2019-04-29T10:31:21.535Z,10.77
2019-04-29T10:34:00.522Z,11.40
2019-04-29T10:36:47.486Z,10.47
2019-04-29T10:39:50.257Z,13.57
2019-04-29T10:42:48.199Z,10.93
2019-04-29T10:45:40.574Z,12.70
2019-04-29T10:48:23.123Z,10.63
2019-04-29T10:50:56.401Z,12.57
2019-04-29T10:53:28.943Z,9.70
2019-04-29T10:56:05.557Z,11.30
2019-04-29T10:58:35.588Z,11.70
2019-04-29T11:02:37.662Z,10.13
2019-04-29T11:05:29.720Z,10.20
2019-04-29T11:08:26.559Z,11.33
2019-04-29T11:11:02.335Z,12.33
2019-04-29T11:13:31.519Z,8.97
2019-04-29T11:16:02.794Z,11.40
2019-04-29T11:18:34.201Z,10.70
2019-04-29T11:21:08.679Z,10.27
2019-04-29T11:24:00.096Z,9.10
2019-04-29T11:26:50.167Z,8.90
2019-04-29T11:29:22.071Z,12.10
2019-04-29T11:31:56.110Z,12.43
2019-04-29T11:34:43.888Z,8.40
2019-04-29T11:37:17.765Z,7.40
2019-04-29T11:39:51.615Z,7.90
2019-04-29T11:42:26.019Z,8.70
2019-04-29T11:45:02.161Z,11.13
2019-04-29T11:47:31.052Z,8.37
2019-04-29T11:50:15.399Z,8.57
2019-04-29T11:52:46.674Z,10.50
2019-04-29T11:55:20.185Z,9.67
2019-04-29T11:57:56.593Z,8.77
2019-04-29T12:00:53.147Z,8.83
2019-04-29T12:03:28.015Z,7.80
2019-04-29T12:06:02.450Z,9.27
2019-04-29T12:08:33.974Z,9.40
2019-04-29T12:11:07.384Z,8.60
2019-04-29T12:14:06.795Z,9.97
2019-04-29T12:16:55.793Z,7.83
2019-04-29T12:19:30.177Z,8.80
2019-04-29T12:22:04.891Z,8.90
2019-04-29T12:24:35.485Z,8.47
2019-04-29T12:27:07.208Z,9.50
2019-04-29T12:29:38.731Z,8.30
2019-04-29T12:32:27.612Z,8.10
2019-04-29T12:35:16.737Z,8.20
2019-04-29T12:38:05.859Z,8.00
2019-04-29T12:41:20.842Z,7.93
2019-04-29T12:43:59.808Z,8.80
2019-04-29T12:46:55.705Z,7.10
2019-04-29T12:49:30.016Z,8.50
2019-04-29T12:52:01.238Z,9.07
2019-04-29T12:54:32.607Z,8.53
2019-04-29T12:57:03.956Z,7.70
2019-04-29T12:59:37.209Z,8.87
2019-04-29T13:02:26.374Z,9.90
2019-04-29T13:05:09.602Z,7.57
2019-04-29T13:08:01.113Z,8.33
2019-04-29T13:10:46.671Z,8.60
2019-04-29T13:13:20.151Z,6.60
2019-04-29T13:16:20.110Z,6.30
2019-04-29T13:19:12.278Z,8.13
2019-04-29T13:21:41.957Z,6.40
2019-04-29T13:24:23.146Z,6.20
2019-04-29T13:26:46.222Z,4.63
2019-04-29T13:29:26.835Z,6.53
2019-04-29T13:31:50.427Z,5.50
2019-04-29T13:34:32.955Z,7.63
2019-04-29T13:37:07.357Z,7.77
2019-04-29T13:39:39.761Z,6.10
2019-04-29T13:42:09.146Z,4.33
2019-04-29T13:44:46.067Z,6.33
2019-04-29T13:47:40.321Z,4.50
2019-04-29T13:50:38.690Z,6.10
2019-04-29T13:52:59.182Z,4.63
2019-04-29T13:55:47.750Z,5.90
2019-04-29T13:58:06.081Z,4.30
2019-04-29T14:01:02.175Z,5.27
2019-04-29T14:03:42.053Z,5.80
2019-04-29T14:06:14.430Z,4.27
2019-04-29T14:08:44.067Z,4.97
2019-04-29T14:11:15.492Z,5.27
2019-04-29T14:13:48.499Z,5.10
2019-04-29T14:16:19.671Z,5.53
2019-04-29T14:18:51.021Z,4.67
2019-04-29T14:21:25.717Z,3.70
2019-04-29T14:23:55.226Z,4.53
2019-04-29T14:26:29.385Z,5.13
2019-04-29T14:28:59.410Z,4.67
2019-04-29T14:31:30.811Z,5.23
2019-04-29T14:34:26.570Z,4.20
2019-04-29T14:37:18.311Z,4.60
2019-04-29T14:39:37.258Z,4.17
2019-04-29T14:42:14.845Z,4.63
2019-04-29T14:44:53.566Z,4.97
2019-04-29T14:47:41.120Z,5.67
2019-04-29T14:50:15.740Z,3.90
2019-04-29T14:52:49.382Z,5.07
2019-04-29T14:55:20.052Z,3.90
2019-04-29T14:57:51.787Z,4.10
2019-04-29T15:00:36.594Z,4.30
2019-04-29T15:03:07.905Z,4.07
2019-04-29T15:05:39.185Z,4.30
2019-04-29T15:08:10.470Z,4.43
2019-04-29T15:10:42.673Z,4.97
2019-04-29T15:13:21.320Z,4.10
2019-04-29T15:16:04.739Z,4.60
2019-04-29T15:18:50.322Z,5.30
2019-04-29T15:21:45.718Z,6.90
2019-04-29T15:24:17.708Z,4.10
2019-04-29T15:26:49.046Z,3.50
2019-04-29T15:29:20.333Z,3.97
2019-04-29T15:31:51.439Z,6.33
2019-04-29T15:34:22.723Z,4.37
2019-04-29T15:36:53.876Z,4.90
2019-04-29T15:39:26.044Z,4.60
2019-04-29T15:41:57.610Z,7.50
2019-04-29T15:44:28.981Z,5.10
2019-04-29T15:47:00.340Z,5.27
2019-04-29T15:49:35.002Z,5.90
2019-04-29T15:52:06.231Z,5.57
2019-04-29T15:54:39.533Z,7.70
2019-04-29T15:57:15.467Z,6.67
2019-04-29T15:59:48.871Z,5.50
2019-04-29T16:02:16.671Z,5.10
2019-04-29T16:04:54.491Z,6.10
2019-04-29T16:07:46.725Z,5.90
2019-04-29T16:10:51.801Z,9.10
2019-04-29T16:13:27.651Z,9.47
2019-04-29T16:15:56.767Z,11.30
2019-04-29T16:18:28.085Z,8.83
2019-04-29T16:20:59.352Z,6.63
2019-04-29T16:23:32.890Z,6.47
2019-04-29T16:26:03.582Z,6.70
2019-04-29T16:28:39.954Z,7.70
2019-04-29T16:31:12.049Z,9.13
2019-04-29T16:33:47.291Z,8.20
2019-04-29T16:36:15.951Z,6.80
2019-04-29T16:38:51.247Z,6.10
2019-04-29T16:41:50.984Z,6.13
2019-04-29T16:44:34.670Z,6.30
2019-04-29T16:46:53.949Z,7.50
2019-04-29T16:49:25.297Z,11.80
2019-04-29T16:51:56.557Z,7.43
2019-04-29T16:54:28.607Z,6.33
2019-04-29T16:57:00.002Z,8.20
2019-04-29T16:59:31.430Z,8.20
2019-04-29T17:02:02.915Z,8.53
2019-04-29T17:04:34.140Z,8.40
2019-04-29T17:07:13.999Z,6.27
2019-04-29T17:10:15.608Z,9.53
2019-04-29T17:12:50.822Z,10.90
2019-04-29T17:15:25.545Z,9.43
2019-04-29T17:17:54.952Z,8.30
2019-04-29T17:20:26.389Z,8.83
2019-04-29T17:22:58.898Z,8.97
2019-04-29T17:25:30.065Z,9.60
2019-04-29T17:31:14.614Z,11.40
2019-04-29T17:34:29.512Z,9.43
2019-04-29T17:35:19.072Z,9.60
2019-04-29T17:36:50.794Z,10.80
2019-04-29T17:39:22.409Z,9.47
2019-04-29T17:41:53.914Z,12.17
2019-04-29T17:44:55.341Z,9.67
2019-04-29T17:47:49.161Z,11.00
2019-04-29T17:50:30.695Z,13.40
2019-04-29T17:53:02.195Z,12.53
2019-04-29T17:55:42.103Z,12.57
2019-04-29T17:58:22.772Z,12.40
2019-04-29T18:01:15.847Z,12.47
2019-04-29T18:04:16.840Z,11.87
2019-04-29T18:06:49.575Z,12.67
2019-04-29T18:09:37.550Z,10.70
2019-04-29T18:12:18.970Z,17.47
2019-04-29T18:14:50.501Z,14.83
2019-04-29T18:17:31.264Z,14.00
2019-04-29T18:20:24.897Z,17.47
2019-04-29T18:23:19.214Z,17.10
2019-04-29T18:26:17.015Z,17.10
2019-04-29T18:28:52.273Z,14.67
2019-04-29T18:31:26.530Z,15.33
2019-04-29T18:33:59.346Z,15.60
2019-04-29T18:36:30.994Z,24.30
2019-04-29T18:39:07.034Z,14.87
2019-04-29T18:41:39.630Z,13.93
2019-04-29T18:44:18.961Z,15.10
2019-04-29T18:46:53.167Z,18.97
2019-04-29T18:49:23.505Z,16.93
2019-04-29T18:51:57.907Z,17.17
2019-04-29T18:54:35.786Z,18.23
2019-04-29T18:57:07.398Z,17.30
2019-04-29T18:59:38.589Z,14.33
2019-04-29T19:02:09.849Z,18.30
2019-04-29T19:04:58.739Z,14.90
2019-04-29T19:07:31.830Z,17.43
2019-04-29T19:10:03.138Z,16.50
2019-04-29T19:12:36.456Z,16.00
2019-04-29T19:15:11.406Z,18.30
2019-04-29T19:17:41.062Z,18.93
2019-04-29T19:20:18.361Z,19.70
2019-04-29T19:22:47.398Z,17.13
2019-04-29T19:25:18.715Z,19.60
2019-04-29T19:27:49.931Z,18.43
2019-04-29T19:30:26.486Z,18.53
2019-04-29T19:33:00.406Z,17.43
2019-04-29T19:35:29.502Z,18.77
2019-04-29T19:38:00.193Z,17.20
2019-04-29T19:40:40.513Z,20.00
2019-04-29T19:43:10.226Z,20.33
2019-04-29T19:45:39.445Z,19.67
2019-04-29T19:48:10.658Z,17.00
2019-04-29T19:50:41.974Z,18.80
2019-04-29T19:53:14.816Z,18.20
2019-04-29T19:55:46.313Z,19.53
2019-04-29T19:58:28.521Z,17.43
2019-04-29T20:00:53.727Z,17.47
2019-04-29T20:03:36.013Z,16.40
2019-04-29T20:06:08.904Z,17.77
2019-04-29T20:08:52.579Z,15.63
2019-04-29T20:11:14.122Z,16.73
2019-04-29T20:13:52.041Z,16.70
2019-04-29T20:16:57.549Z,19.60
2019-04-29T20:19:31.148Z,13.63
2019-04-29T20:22:07.461Z,14.20
2019-04-29T20:24:36.397Z,14.43
2019-04-29T20:27:07.958Z,15.27
2019-04-29T20:29:39.435Z,12.00
2019-04-29T20:32:10.947Z,13.30
2019-04-29T20:34:42.389Z,14.90
2019-04-29T20:37:16.150Z,14.40
2019-04-29T20:39:46.566Z,13.87
2019-04-29T20:42:17.943Z,15.13
2019-04-29T20:44:49.566Z,15.23
2019-04-29T20:47:23.529Z,15.20
2019-04-29T20:49:53.872Z,16.47
2019-04-29T20:52:36.202Z,16.70
2019-04-29T20:55:10.214Z,16.97
2019-04-29T20:57:41.687Z,16.83
2019-04-29T21:00:14.327Z,17.17
2019-04-29T21:02:48.527Z,16.10
2019-04-29T21:05:23.298Z,16.73
2019-04-29T21:08:02.637Z,15.00
2019-04-29T21:10:26.108Z,17.97
2019-04-29T21:13:31.253Z,16.13
2019-04-29T21:16:22.812Z,15.60
2019-04-29T21:18:57.090Z,17.33
2019-04-29T21:21:28.346Z,18.83
2019-04-29T21:23:59.629Z,17.10
2019-04-29T21:26:30.922Z,19.43
2019-04-29T21:29:02.218Z,17.93
2019-04-29T21:31:35.422Z,18.77
2019-04-29T21:34:06.414Z,17.17
2019-04-29T21:37:01.695Z,19.93
2019-04-29T21:39:41.206Z,24.40
2019-04-29T21:42:22.585Z,20.60
2019-04-29T21:44:53.857Z,25.40
2019-04-29T21:47:28.147Z,18.03
2019-04-29T21:49:58.019Z,20.57
2019-04-29T21:52:29.526Z,18.97
2019-04-29T21:55:00.780Z,21.40
2019-04-29T21:57:32.044Z,23.40
2019-04-29T22:00:03.277Z,27.00
2019-04-29T22:02:35.816Z,18.20
2019-04-29T22:05:09.712Z,23.90
2019-04-29T22:07:45.905Z,26.53
2019-04-29T22:10:15.441Z,24.07
2019-04-29T22:12:50.884Z,24.30
2019-04-29T22:15:29.893Z,25.97
2019-04-29T22:17:56.427Z,24.97
2019-04-29T22:20:25.845Z,27.77
2019-04-29T22:22:57.423Z,24.57
2019-04-29T22:25:28.903Z,25.87
2019-04-29T22:28:00.166Z,25.43
2019-04-29T22:30:31.618Z,22.80
2019-04-29T22:33:02.791Z,25.00
2019-04-29T22:35:39.445Z,26.67
2019-04-29T22:38:12.677Z,25.20
2019-04-29T22:40:45.196Z,27.17
2019-04-29T22:43:44.599Z,27.90
2019-04-29T22:46:17.665Z,26.10
2019-04-29T22:48:49.051Z,25.53
2019-04-29T22:51:20.285Z,25.73
2019-04-29T22:53:51.465Z,31.17
2019-04-29T22:56:22.754Z,33.20
2019-04-29T22:58:55.868Z,23.80
2019-04-29T23:01:26.915Z,27.73
2019-04-29T23:03:58.153Z,31.90
2019-04-29T23:06:29.353Z,29.00
2019-04-29T23:09:00.683Z,26.90
2019-04-29T23:11:34.780Z,29.87
2019-04-29T23:14:08.556Z,27.63
2019-04-29T23:16:37.945Z,30.27
2019-04-29T23:19:13.625Z,27.30
2019-04-29T23:22:07.479Z,26.77
2019-04-29T23:24:55.868Z,26.67
2019-04-29T23:27:27.231Z,29.30
2019-04-29T23:29:58.493Z,32.53
2019-04-29T23:32:29.766Z,33.10
2019-04-29T23:35:01.669Z,36.50
2019-04-29T23:37:35.784Z,33.50
2019-04-29T23:40:08.556Z,34.90
2019-04-29T23:42:43.644Z,35.87
2019-04-29T23:45:16.314Z,31.37
2019-04-29T23:47:49.274Z,32.50
2019-04-29T23:50:20.206Z,36.13
2019-04-29T23:52:52.033Z,33.63
2019-04-29T23:55:25.601Z,34.97
2019-04-29T23:58:14.122Z,35.40
